createdAt,value
2022-11-15T00:01:53.833Z,61.75
2022-11-15T00:04:23.709Z,60.42
2022-11-15T00:06:53.634Z,63.27
2022-11-15T00:09:23.599Z,63.46
2022-11-15T00:11:53.212Z,60.99
2022-11-15T00:14:20.393Z,60.80
2022-11-15T00:16:48.725Z,63.65
2022-11-15T00:19:17.286Z,64.03
2022-11-15T00:21:45.586Z,68.21
2022-11-15T00:24:14.002Z,71.63
2022-11-15T00:26:42.383Z,65.36
2022-11-15T00:29:10.876Z,61.56
2022-11-15T00:31:39.202Z,56.81
2022-11-15T00:34:07.704Z,63.84
2022-11-15T00:36:36.243Z,59.66
2022-11-15T00:39:06.857Z,61.75
2022-11-15T00:41:35.871Z,59.09
2022-11-15T00:44:04.568Z,66.31
2022-11-15T00:46:32.788Z,66.88
2022-11-15T00:49:01.255Z,63.27
2022-11-15T00:51:29.648Z,54.72
2022-11-15T00:53:58.022Z,61.37
2022-11-15T00:56:26.435Z,55.29
2022-11-15T00:58:55.168Z,65.36
2022-11-15T01:01:23.217Z,60.61
2022-11-15T01:03:51.701Z,59.47
2022-11-15T01:06:20.025Z,57.95
2022-11-15T01:08:48.402Z,58.71
2022-11-15T01:11:17.249Z,63.08
2022-11-15T01:13:45.229Z,60.42
2022-11-15T01:16:19.447Z,60.61
2022-11-15T01:18:49.393Z,55.48
2022-11-15T01:21:20.500Z,60.04
2022-11-15T01:23:55.636Z,61.18
2022-11-15T01:26:27.274Z,57.57
2022-11-15T01:28:57.236Z,61.56
2022-11-15T01:31:27.098Z,59.09
2022-11-15T01:33:57.006Z,62.13
2022-11-15T01:36:26.976Z,60.99
2022-11-15T01:39:00.819Z,58.33
2022-11-15T01:41:34.415Z,68.02
2022-11-15T01:44:52.586Z,59.66
2022-11-15T01:47:36.309Z,62.13
2022-11-15T01:50:19.627Z,57.76
2022-11-15T01:52:49.717Z,55.86
2022-11-15T01:55:26.163Z,58.33
2022-11-15T01:58:03.088Z,60.99
2022-11-15T02:00:33.047Z,58.71
2022-11-15T02:03:04.273Z,60.42
2022-11-15T02:05:36.176Z,60.80
2022-11-15T02:08:07.704Z,69.35
2022-11-15T02:10:36.958Z,65.74
2022-11-15T02:13:05.413Z,65.36
2022-11-15T02:15:59.052Z,60.80
2022-11-15T02:18:45.558Z,63.08
2022-11-15T02:21:33.900Z,62.89
2022-11-15T02:24:45.511Z,51.49
2022-11-15T02:27:35.363Z,53.77
2022-11-15T02:30:55.895Z,55.48
2022-11-15T02:33:50.052Z,52.63
2022-11-15T02:37:12.032Z,53.77
2022-11-15T02:40:16.017Z,52.82
2022-11-15T02:43:14.053Z,58.33
2022-11-15T02:45:54.948Z,51.11
2022-11-15T02:48:27.347Z,53.58
2022-11-15T02:50:58.594Z,56.05
2022-11-15T02:53:28.759Z,57.57
2022-11-15T02:55:59.367Z,59.09
2022-11-15T02:58:53.649Z,65.93
2022-11-15T03:02:07.312Z,56.24
2022-11-15T03:04:54.132Z,59.66
2022-11-15T03:07:37.916Z,57.19
2022-11-15T03:10:21.927Z,55.29
2022-11-15T03:13:02.092Z,57.19
2022-11-15T03:15:47.619Z,60.23
2022-11-15T03:18:29.263Z,58.90
2022-11-15T03:21:05.263Z,65.93
2022-11-15T03:23:39.043Z,68.40
2022-11-15T03:26:14.621Z,60.99
2022-11-15T03:28:56.389Z,60.23
2022-11-15T03:31:50.373Z,66.31
2022-11-15T03:34:35.761Z,59.47
2022-11-15T03:37:05.977Z,54.34
2022-11-15T03:39:35.913Z,58.71
2022-11-15T03:42:18.400Z,57.00
2022-11-15T03:45:17.340Z,55.67
2022-11-15T03:47:56.709Z,51.68
2022-11-15T03:50:27.117Z,64.60
2022-11-15T03:52:58.134Z,69.16
2022-11-15T03:55:25.942Z,64.22
2022-11-15T03:57:59.616Z,62.89
2022-11-15T04:00:30.153Z,60.99
2022-11-15T04:03:00.121Z,56.43
2022-11-15T04:05:29.981Z,61.75
2022-11-15T04:07:59.765Z,61.18
2022-11-15T04:10:29.600Z,60.99
2022-11-15T04:12:59.450Z,60.42
2022-11-15T04:15:32.663Z,55.29
2022-11-15T04:18:02.754Z,56.24
2022-11-15T04:20:52.267Z,58.33
2022-11-15T04:23:41.580Z,53.77
2022-11-15T04:26:17.188Z,51.30
2022-11-15T04:29:05.683Z,57.19
2022-11-15T04:31:35.723Z,58.71
2022-11-15T04:34:05.480Z,60.04
2022-11-15T04:36:53.994Z,61.94
2022-11-15T04:39:23.880Z,58.90
2022-11-15T04:41:53.793Z,58.52
2022-11-15T04:44:23.718Z,60.04
2022-11-15T04:46:54.301Z,61.18
2022-11-15T04:49:24.081Z,59.09
2022-11-15T04:51:54.332Z,56.62
2022-11-15T04:54:24.320Z,60.23
2022-11-15T04:56:55.713Z,62.13
2022-11-15T04:59:25.885Z,55.86
2022-11-15T05:01:55.830Z,59.28
2022-11-15T05:04:25.907Z,65.93
2022-11-15T05:06:55.894Z,59.09
2022-11-15T05:09:25.948Z,64.98
2022-11-15T05:11:55.781Z,66.88
2022-11-15T05:14:25.671Z,63.65
2022-11-15T05:16:55.713Z,64.60
2022-11-15T05:19:25.669Z,60.80
2022-11-15T05:21:55.464Z,64.98
2022-11-15T05:24:24.220Z,62.51
2022-11-15T05:26:52.312Z,64.98
2022-11-15T05:29:20.981Z,69.54
2022-11-15T05:31:49.315Z,62.89
2022-11-15T05:34:19.101Z,62.51
2022-11-15T05:36:47.037Z,63.65
2022-11-15T05:39:14.697Z,62.89
2022-11-15T05:41:49.238Z,60.99
2022-11-15T05:44:23.486Z,52.44
2022-11-15T05:46:57.160Z,66.12
2022-11-15T05:49:35.536Z,64.60
2022-11-15T05:52:11.193Z,60.80
2022-11-15T05:54:42.336Z,58.33
2022-11-15T05:57:12.982Z,58.33
2022-11-15T05:59:44.862Z,58.52
2022-11-15T06:02:15.873Z,60.99
2022-11-15T06:04:46.924Z,59.47
2022-11-15T06:07:16.810Z,56.24
2022-11-15T06:09:46.742Z,60.80
2022-11-15T06:12:15.398Z,57.38
2022-11-15T06:14:43.571Z,54.91
2022-11-15T06:17:12.114Z,61.18
2022-11-15T06:19:40.542Z,56.05
2022-11-15T06:22:10.457Z,66.88
2022-11-15T06:24:37.466Z,59.66
2022-11-15T06:27:05.779Z,63.65
2022-11-15T06:29:36.012Z,64.98
2022-11-15T06:32:04.885Z,58.52
2022-11-15T06:34:32.436Z,64.22
2022-11-15T06:37:01.052Z,64.03
2022-11-15T06:39:31.066Z,58.52
2022-11-15T06:42:00.687Z,57.00
2022-11-15T06:44:28.030Z,61.37
2022-11-15T06:46:56.601Z,61.18
2022-11-15T06:49:24.994Z,61.18
2022-11-15T06:51:53.385Z,59.66
2022-11-15T06:54:22.423Z,61.75
2022-11-15T06:56:50.207Z,69.35
2022-11-15T06:59:18.978Z,59.47
2022-11-15T07:01:47.247Z,61.75
2022-11-15T07:04:15.745Z,68.02
2022-11-15T07:06:43.942Z,68.40
2022-11-15T07:09:12.747Z,62.89
2022-11-15T07:11:41.222Z,70.68
2022-11-15T07:14:09.609Z,64.79
2022-11-15T07:16:38.980Z,58.71
2022-11-15T07:19:06.566Z,71.06
2022-11-15T07:21:34.566Z,65.55
2022-11-15T07:24:03.126Z,66.12
2022-11-15T07:26:31.536Z,79.42
2022-11-15T07:29:00.071Z,66.69
2022-11-15T07:31:28.545Z,78.09
2022-11-15T07:33:57.513Z,79.61
2022-11-15T07:36:28.170Z,79.04
2022-11-15T07:38:56.652Z,75.62
2022-11-15T07:41:25.139Z,80.18
2022-11-15T07:43:53.715Z,68.97
2022-11-15T07:46:23.534Z,73.15
2022-11-15T07:48:53.554Z,63.84
2022-11-15T07:51:23.398Z,74.29
2022-11-15T07:53:50.846Z,72.20
2022-11-15T07:56:18.130Z,81.70
2022-11-15T07:58:48.216Z,78.09
2022-11-15T08:01:18.247Z,70.49
2022-11-15T08:03:48.240Z,78.28
2022-11-15T08:06:18.105Z,71.82
2022-11-15T08:08:49.075Z,82.46
2022-11-15T08:11:18.856Z,78.66
2022-11-15T08:13:48.766Z,80.94
2022-11-15T08:16:18.567Z,74.86
2022-11-15T08:18:47.712Z,75.05
2022-11-15T08:21:21.106Z,78.85
2022-11-15T08:23:50.852Z,71.82
2022-11-15T08:26:20.822Z,74.67
2022-11-15T08:28:50.582Z,73.34
2022-11-15T08:31:20.456Z,75.24
2022-11-15T08:33:50.338Z,68.97
2022-11-15T08:36:20.232Z,74.86
2022-11-15T08:38:50.116Z,79.04
2022-11-15T08:41:33.534Z,64.60
2022-11-15T08:44:01.502Z,76.57
2022-11-15T08:46:28.846Z,73.72
2022-11-15T08:48:59.126Z,74.48
2022-11-15T08:51:28.811Z,65.74
2022-11-15T08:53:58.961Z,63.27
2022-11-15T08:56:28.815Z,52.44
2022-11-15T08:58:58.568Z,70.11
2022-11-15T09:01:28.459Z,64.03
2022-11-15T09:03:58.289Z,62.13
2022-11-15T09:06:28.243Z,71.44
2022-11-15T09:08:58.728Z,58.33
2022-11-15T09:11:28.273Z,71.63
2022-11-15T09:13:58.094Z,64.41
2022-11-15T09:16:28.006Z,55.10
2022-11-15T09:18:58.028Z,63.65
2022-11-15T09:21:27.754Z,66.12
2022-11-15T09:23:58.745Z,60.42
2022-11-15T09:26:28.275Z,61.18
2022-11-15T09:28:58.010Z,60.23
2022-11-15T09:31:28.358Z,62.32
2022-11-15T09:33:58.553Z,65.55
2022-11-15T09:36:28.374Z,57.57
2022-11-15T09:38:59.516Z,61.94
2022-11-15T09:42:19.185Z,63.08
2022-11-15T09:45:14.441Z,56.24
2022-11-15T09:48:24.033Z,59.28
2022-11-15T09:50:59.747Z,47.69
2022-11-15T09:57:35.934Z,45.22
2022-11-15T10:00:44.687Z,47.12
2022-11-15T10:03:19.103Z,45.60
2022-11-15T10:05:53.058Z,42.18
2022-11-15T10:08:49.092Z,41.23
2022-11-15T10:11:40.701Z,40.47
2022-11-15T10:14:22.993Z,35.72
2022-11-15T10:17:31.503Z,37.24
2022-11-15T10:20:18.236Z,32.49
2022-11-15T10:22:54.862Z,32.68
2022-11-15T10:25:29.515Z,37.24
2022-11-15T10:28:28.863Z,30.59
2022-11-15T10:31:02.125Z,30.78
2022-11-15T10:33:41.077Z,28.88
2022-11-15T10:36:09.330Z,31.54
2022-11-15T10:38:58.569Z,29.45
2022-11-15T10:41:28.290Z,26.98
2022-11-15T10:44:21.103Z,30.59
2022-11-15T10:47:25.832Z,28.69
2022-11-15T10:50:33.120Z,23.75
2022-11-15T10:53:03.894Z,27.36
2022-11-15T10:55:36.173Z,28.88
2022-11-15T10:58:41.741Z,28.69
2022-11-15T11:01:46.999Z,30.02
2022-11-15T11:04:15.331Z,29.26
2022-11-15T11:06:50.535Z,33.25
2022-11-15T11:09:38.433Z,33.06
2022-11-15T11:12:18.123Z,28.50
2022-11-15T11:14:45.331Z,27.17
2022-11-15T11:17:36.623Z,29.07
2022-11-15T11:20:39.270Z,29.07
2022-11-15T11:23:47.679Z,27.93
2022-11-15T11:26:56.855Z,26.79
2022-11-15T11:30:41.179Z,30.21
2022-11-15T11:33:25.936Z,27.55
2022-11-15T11:35:58.508Z,29.45
2022-11-15T11:39:15.694Z,27.17
2022-11-15T11:42:20.814Z,26.41
2022-11-15T11:45:15.126Z,25.46
2022-11-15T11:48:03.843Z,26.60
2022-11-15T11:50:38.836Z,29.26
2022-11-15T11:53:30.374Z,33.25
2022-11-15T11:56:09.340Z,26.03
2022-11-15T11:58:45.807Z,26.41
2022-11-15T12:01:31.289Z,28.12
2022-11-15T12:04:10.874Z,26.41
2022-11-15T12:06:59.957Z,25.08
2022-11-15T12:09:54.695Z,25.84
2022-11-15T12:13:05.870Z,24.70
2022-11-15T12:15:49.231Z,26.41
2022-11-15T12:18:19.218Z,27.36
2022-11-15T12:21:05.840Z,25.46
2022-11-15T12:23:46.258Z,26.98
2022-11-15T12:26:27.980Z,26.98
2022-11-15T12:29:10.897Z,22.42
2022-11-15T12:31:45.140Z,25.46
2022-11-15T12:34:44.210Z,23.37
2022-11-15T12:37:47.299Z,23.75
2022-11-15T12:40:26.081Z,21.47
2022-11-15T12:43:09.677Z,25.84
2022-11-15T12:45:46.380Z,21.66
2022-11-15T12:48:17.674Z,23.75
2022-11-15T12:50:55.410Z,22.04
2022-11-15T12:53:29.460Z,22.99
2022-11-15T12:56:13.014Z,21.85
2022-11-15T12:59:09.302Z,23.37
2022-11-15T13:01:59.773Z,20.14
2022-11-15T13:04:30.091Z,23.18
2022-11-15T13:07:05.401Z,22.99
2022-11-15T13:09:35.161Z,25.08
2022-11-15T13:12:28.418Z,20.71
2022-11-15T13:15:01.519Z,22.04
2022-11-15T13:17:41.039Z,23.75
2022-11-15T13:20:24.352Z,27.17
2022-11-15T13:23:03.344Z,26.03
2022-11-15T13:25:49.008Z,22.99
2022-11-15T13:28:18.597Z,32.87
2022-11-15T13:30:48.278Z,31.35
2022-11-15T13:33:36.485Z,33.63
2022-11-15T13:36:17.752Z,29.64
2022-11-15T13:39:00.518Z,33.63
2022-11-15T13:41:37.241Z,30.78
2022-11-15T13:44:28.546Z,33.44
2022-11-15T13:47:16.602Z,34.58
2022-11-15T13:49:46.439Z,40.09
2022-11-15T13:52:18.048Z,31.54
2022-11-15T13:55:16.585Z,34.01
2022-11-15T13:57:50.135Z,37.24
2022-11-15T14:00:42.662Z,33.82
2022-11-15T14:03:30.948Z,30.21
2022-11-15T14:06:16.965Z,33.25
2022-11-15T14:09:10.880Z,41.42
2022-11-15T14:11:56.232Z,32.30
2022-11-15T14:14:28.752Z,31.73
2022-11-15T14:17:01.704Z,33.63
2022-11-15T14:19:32.820Z,33.63
2022-11-15T14:22:31.997Z,34.58
2022-11-15T14:25:20.126Z,32.11
2022-11-15T14:28:16.846Z,36.86
2022-11-15T14:30:51.027Z,42.37
2022-11-15T14:33:36.031Z,32.49
2022-11-15T14:36:16.428Z,38.38
2022-11-15T14:38:47.970Z,37.43
2022-11-15T14:41:25.505Z,37.43
2022-11-15T14:43:55.479Z,33.06
2022-11-15T14:46:25.365Z,33.82
2022-11-15T14:48:55.113Z,35.53
2022-11-15T14:51:25.252Z,28.12
2022-11-15T14:53:56.357Z,35.72
2022-11-15T14:56:26.092Z,35.34
2022-11-15T14:58:56.358Z,35.72
2022-11-15T15:01:27.820Z,30.78
2022-11-15T15:03:59.384Z,32.68
2022-11-15T15:06:30.095Z,32.30
2022-11-15T15:08:59.852Z,35.34
2022-11-15T15:11:32.554Z,35.91
2022-11-15T15:14:02.455Z,31.35
2022-11-15T15:16:32.266Z,35.53
2022-11-15T15:19:02.097Z,34.01
2022-11-15T15:21:36.763Z,33.63
2022-11-15T15:24:06.666Z,31.73
2022-11-15T15:26:37.440Z,30.40
2022-11-15T15:29:06.296Z,30.40
2022-11-15T15:31:34.631Z,32.68
2022-11-15T15:34:04.146Z,29.45
2022-11-15T15:36:33.794Z,27.55
2022-11-15T15:39:04.223Z,33.63
2022-11-15T15:41:33.981Z,29.07
2022-11-15T15:44:03.731Z,30.40
2022-11-15T15:46:35.425Z,32.30
2022-11-15T15:49:05.263Z,32.30
2022-11-15T15:51:35.270Z,31.35
2022-11-15T15:54:05.101Z,34.96
2022-11-15T15:56:34.988Z,33.44
2022-11-15T15:59:04.783Z,32.11
2022-11-15T16:01:34.610Z,33.06
2022-11-15T16:04:04.396Z,36.48
2022-11-15T16:06:42.246Z,35.91
2022-11-15T16:09:17.092Z,34.39
2022-11-15T16:11:48.204Z,29.45
2022-11-15T16:14:18.044Z,30.78
2022-11-15T16:16:47.822Z,29.45
2022-11-15T16:19:17.709Z,28.88
2022-11-15T16:21:47.596Z,32.87
2022-11-15T16:24:18.061Z,34.20
2022-11-15T16:26:50.516Z,35.15
2022-11-15T16:29:20.253Z,38.19
2022-11-15T16:31:50.065Z,37.24
2022-11-15T16:34:19.863Z,40.09
2022-11-15T16:36:56.844Z,33.25
2022-11-15T16:39:24.525Z,36.10
2022-11-15T16:41:53.200Z,36.86
2022-11-15T16:44:24.814Z,38.19
2022-11-15T16:46:54.630Z,37.62
2022-11-15T16:49:24.513Z,37.24
2022-11-15T16:51:54.295Z,37.62
2022-11-15T16:54:24.099Z,39.33
2022-11-15T16:56:52.539Z,43.70
2022-11-15T16:59:21.251Z,38.38
2022-11-15T17:01:51.971Z,38.00
2022-11-15T17:04:22.804Z,44.08
2022-11-15T17:06:53.382Z,40.66
2022-11-15T17:09:24.849Z,42.75
2022-11-15T17:11:54.170Z,41.99
2022-11-15T17:14:23.581Z,42.94
2022-11-15T17:16:54.711Z,45.98
2022-11-15T17:19:23.617Z,45.03
2022-11-15T17:21:54.254Z,41.99
2022-11-15T17:24:24.223Z,53.77
2022-11-15T17:26:53.506Z,44.27
2022-11-15T17:29:23.265Z,49.97
2022-11-15T17:31:53.193Z,52.25
2022-11-15T17:34:22.987Z,48.83
2022-11-15T17:36:52.899Z,52.44
2022-11-15T17:39:23.874Z,46.74
2022-11-15T17:41:53.764Z,50.73
2022-11-15T17:44:23.686Z,49.40
2022-11-15T17:46:53.505Z,51.49
2022-11-15T17:49:23.625Z,50.54
2022-11-15T17:51:54.012Z,57.19
2022-11-15T17:54:23.742Z,55.29
2022-11-15T17:57:53.487Z,64.60
2022-11-15T18:00:23.619Z,61.18
2022-11-15T18:02:52.979Z,53.77
2022-11-15T18:05:22.730Z,48.26
2022-11-15T18:07:50.669Z,59.28
2022-11-15T18:10:20.254Z,57.57
2022-11-15T18:12:49.999Z,62.13
2022-11-15T18:15:21.451Z,59.66
2022-11-15T18:17:50.490Z,60.23
2022-11-15T18:20:21.226Z,60.04
2022-11-15T18:22:54.543Z,65.55
2022-11-15T18:25:22.519Z,64.03
2022-11-15T18:27:55.302Z,57.19
2022-11-15T18:30:24.504Z,60.42
2022-11-15T18:32:55.268Z,66.50
2022-11-15T18:35:25.166Z,58.52
2022-11-15T18:37:56.087Z,58.52
2022-11-15T18:40:25.185Z,61.75
2022-11-15T18:42:55.116Z,68.97
2022-11-15T18:45:25.283Z,68.59
2022-11-15T18:47:55.022Z,66.69
2022-11-15T18:50:26.791Z,63.08
2022-11-15T18:52:55.171Z,77.90
2022-11-15T18:55:24.963Z,67.64
2022-11-15T18:57:55.010Z,68.21
2022-11-15T19:00:24.984Z,73.15
2022-11-15T19:02:55.065Z,73.53
2022-11-15T19:05:24.848Z,73.34
2022-11-15T19:07:54.740Z,68.59
2022-11-15T19:10:23.410Z,75.24
2022-11-15T19:12:51.935Z,70.11
2022-11-15T19:15:20.637Z,77.71
2022-11-15T19:17:48.887Z,74.29
2022-11-15T19:20:17.396Z,85.50
2022-11-15T19:22:45.883Z,79.61
2022-11-15T19:25:14.824Z,90.25
2022-11-15T19:27:42.677Z,88.54
2022-11-15T19:30:11.942Z,72.39
2022-11-15T19:32:39.943Z,78.28
2022-11-15T19:35:08.709Z,79.23
2022-11-15T19:37:36.470Z,78.28
2022-11-15T19:40:08.720Z,72.01
2022-11-15T19:42:36.058Z,82.65
2022-11-15T19:45:05.362Z,80.37
2022-11-15T19:47:32.956Z,66.69
2022-11-15T19:50:01.299Z,81.89
2022-11-15T19:52:30.071Z,87.78
2022-11-15T19:54:58.562Z,92.53
2022-11-15T19:57:27.067Z,91.39
2022-11-15T19:59:55.397Z,86.26
2022-11-15T20:02:23.952Z,84.55
2022-11-15T20:04:52.364Z,95.57
2022-11-15T20:07:20.717Z,82.84
2022-11-15T20:09:49.183Z,98.80
2022-11-15T20:12:17.592Z,95.57
2022-11-15T20:14:46.601Z,93.10
2022-11-15T20:17:14.285Z,93.67
2022-11-15T20:19:43.560Z,93.29
2022-11-15T20:22:11.479Z,105.64
2022-11-15T20:24:39.792Z,84.93
2022-11-15T20:27:08.594Z,85.69
2022-11-15T20:29:37.048Z,66.31
2022-11-15T20:32:07.813Z,85.12
2022-11-15T20:34:36.355Z,88.35
2022-11-15T20:37:04.785Z,95.57
2022-11-15T20:39:34.788Z,82.46
2022-11-15T20:42:01.683Z,79.04
2022-11-15T20:44:30.063Z,86.07
2022-11-15T20:46:58.405Z,92.53
2022-11-15T20:49:26.841Z,85.88
2022-11-15T20:51:55.318Z,96.14
2022-11-15T20:54:23.710Z,102.79
2022-11-15T20:56:52.059Z,94.62
2022-11-15T20:59:20.505Z,94.24
2022-11-15T21:01:49.035Z,97.47
2022-11-15T21:04:17.413Z,97.66
2022-11-15T21:06:48.724Z,101.46
2022-11-15T21:09:37.633Z,93.10
2022-11-15T21:12:19.065Z,67.07
2022-11-15T21:14:48.574Z,96.90
2022-11-15T21:17:17.013Z,95.95
2022-11-15T21:19:47.225Z,92.34
2022-11-15T21:22:16.512Z,88.35
2022-11-15T21:24:47.174Z,82.46
2022-11-15T21:27:17.033Z,94.43
2022-11-15T21:29:49.575Z,95.76
2022-11-15T21:32:20.147Z,77.14
2022-11-15T21:34:49.781Z,84.93
2022-11-15T21:37:19.643Z,77.52
2022-11-15T21:39:49.412Z,64.03
2022-11-15T21:42:19.624Z,76.19
2022-11-15T21:44:49.375Z,83.98
2022-11-15T21:47:19.905Z,89.68
2022-11-15T21:49:49.385Z,73.15
2022-11-15T21:52:19.247Z,90.63
2022-11-15T21:54:47.662Z,64.22
2022-11-15T21:57:16.169Z,81.32
2022-11-15T22:00:03.171Z,66.88
2022-11-15T22:02:30.777Z,79.80
2022-11-15T22:04:59.087Z,65.93
2022-11-15T22:07:27.547Z,77.14
2022-11-15T22:09:55.852Z,75.24
2022-11-15T22:12:29.399Z,71.44
2022-11-15T22:14:58.716Z,74.10
2022-11-15T22:17:47.136Z,85.50
2022-11-15T22:20:45.536Z,77.14
2022-11-15T22:23:06.021Z,73.91
2022-11-15T22:25:35.950Z,79.23
2022-11-15T22:28:05.823Z,72.96
2022-11-15T22:30:35.770Z,58.71
2022-11-15T22:33:05.555Z,66.88
2022-11-15T22:35:36.320Z,82.46
2022-11-15T22:38:07.195Z,74.29
2022-11-15T22:40:35.754Z,78.28
2022-11-15T22:43:04.114Z,69.16
2022-11-15T22:45:32.871Z,62.51
2022-11-15T22:48:00.418Z,68.78
2022-11-15T22:50:28.466Z,87.97
2022-11-15T22:52:56.867Z,67.07
2022-11-15T22:55:25.926Z,80.56
2022-11-15T22:57:53.965Z,68.78
2022-11-15T23:00:23.860Z,57.57
2022-11-15T23:02:54.522Z,63.27
2022-11-15T23:05:24.452Z,72.96
2022-11-15T23:07:54.314Z,83.41
2022-11-15T23:10:42.843Z,67.26
2022-11-15T23:13:17.495Z,60.42
2022-11-15T23:16:10.256Z,69.92
2022-11-15T23:18:43.377Z,81.70
2022-11-15T23:21:37.560Z,67.83
2022-11-15T23:24:11.695Z,76.57
2022-11-15T23:26:40.773Z,75.24
2022-11-15T23:29:14.806Z,81.89
2022-11-15T23:32:03.545Z,76.00
2022-11-15T23:34:39.353Z,71.82
2022-11-15T23:37:12.725Z,82.65
2022-11-15T23:39:42.690Z,69.35
2022-11-15T23:42:19.936Z,72.39
2022-11-15T23:44:51.094Z,70.68
2022-11-15T23:47:19.544Z,68.97
2022-11-15T23:49:47.391Z,84.93
2022-11-15T23:52:16.921Z,91.96
2022-11-15T23:54:46.716Z,65.17
2022-11-15T23:57:15.346Z,73.91
2022-11-15T23:59:43.909Z,72.58
